sensor_id;sensor_type;location;lat;lon;timestamp;P1;durP1;ratioP1;P2;durP2;ratioP2
33844;SDS011;20145;43.118;25.694;2023-05-02T00:00:09;4.47;;;3.97;;
33844;SDS011;20145;43.118;25.694;2023-05-02T00:02:37;5.10;;;3.80;;
33844;SDS011;20145;43.118;25.694;2023-05-02T00:05:03;5.82;;;4.00;;
33844;SDS011;20145;43.118;25.694;2023-05-02T00:07:30;5.32;;;4.75;;
33844;SDS011;20145;43.118;25.694;2023-05-02T00:09:56;3.90;;;3.55;;
33844;SDS011;20145;43.118;25.694;2023-05-02T00:12:22;4.32;;;3.63;;
33844;SDS011;20145;43.118;25.694;2023-05-02T00:14:48;6.90;;;4.70;;
33844;SDS011;20145;43.118;25.694;2023-05-02T00:17:17;6.10;;;4.95;;
33844;SDS011;20145;43.118;25.694;2023-05-02T00:19:44;7.85;;;4.53;;
33844;SDS011;20145;43.118;25.694;2023-05-02T00:22:09;6.15;;;4.00;;
33844;SDS011;20145;43.118;25.694;2023-05-02T00:24:35;5.10;;;4.60;;
33844;SDS011;20145;43.118;25.694;2023-05-02T00:27:00;4.90;;;4.40;;
33844;SDS011;20145;43.118;25.694;2023-05-02T00:29:26;4.38;;;3.88;;
33844;SDS011;20145;43.118;25.694;2023-05-02T00:31:51;4.90;;;4.50;;
33844;SDS011;20145;43.118;25.694;2023-05-02T00:34:17;4.70;;;4.30;;
33844;SDS011;20145;43.118;25.694;2023-05-02T00:36:42;7.35;;;5.10;;
33844;SDS011;20145;43.118;25.694;2023-05-02T00:39:08;6.50;;;5.03;;
33844;SDS011;20145;43.118;25.694;2023-05-02T00:41:34;6.85;;;5.40;;
33844;SDS011;20145;43.118;25.694;2023-05-02T00:44:00;5.65;;;4.68;;
33844;SDS011;20145;43.118;25.694;2023-05-02T00:46:26;5.15;;;4.40;;
33844;SDS011;20145;43.118;25.694;2023-05-02T00:48:52;6.80;;;4.60;;
33844;SDS011;20145;43.118;25.694;2023-05-02T00:51:17;5.35;;;4.65;;
33844;SDS011;20145;43.118;25.694;2023-05-02T00:53:43;5.20;;;4.68;;
33844;SDS011;20145;43.118;25.694;2023-05-02T00:56:09;5.75;;;5.03;;
33844;SDS011;20145;43.118;25.694;2023-05-02T00:58:35;7.53;;;4.95;;
33844;SDS011;20145;43.118;25.694;2023-05-02T01:11:55;4.32;;;3.85;;
33844;SDS011;20145;43.118;25.694;2023-05-02T01:14:40;5.03;;;4.53;;
33844;SDS011;20145;43.118;25.694;2023-05-02T01:17:08;6.18;;;4.57;;
33844;SDS011;20145;43.118;25.694;2023-05-02T01:19:41;5.70;;;4.53;;
33844;SDS011;20145;43.118;25.694;2023-05-02T01:22:13;4.85;;;4.45;;
33844;SDS011;20145;43.118;25.694;2023-05-02T01:24:45;6.68;;;4.85;;
33844;SDS011;20145;43.118;25.694;2023-05-02T01:29:52;6.32;;;5.63;;
33844;SDS011;20145;43.118;25.694;2023-05-02T01:32:19;7.22;;;4.78;;
33844;SDS011;20145;43.118;25.694;2023-05-02T01:34:47;7.57;;;4.57;;
33844;SDS011;20145;43.118;25.694;2023-05-02T01:37:16;5.57;;;4.10;;
33844;SDS011;20145;43.118;25.694;2023-05-02T01:39:43;5.25;;;4.60;;
33844;SDS011;20145;43.118;25.694;2023-05-02T01:42:11;5.72;;;4.70;;
33844;SDS011;20145;43.118;25.694;2023-05-02T01:44:38;4.35;;;3.88;;
33844;SDS011;20145;43.118;25.694;2023-05-02T01:47:05;4.90;;;3.97;;
33844;SDS011;20145;43.118;25.694;2023-05-02T01:49:33;4.60;;;4.20;;
33844;SDS011;20145;43.118;25.694;2023-05-02T01:52:04;5.32;;;3.53;;
33844;SDS011;20145;43.118;25.694;2023-05-02T01:54:34;5.30;;;4.15;;
33844;SDS011;20145;43.118;25.694;2023-05-02T01:57:01;7.43;;;4.35;;
33844;SDS011;20145;43.118;25.694;2023-05-02T01:59:30;5.55;;;3.78;;
33844;SDS011;20145;43.118;25.694;2023-05-02T02:01:58;6.50;;;4.25;;
33844;SDS011;20145;43.118;25.694;2023-05-02T02:04:28;10.18;;;4.15;;
33844;SDS011;20145;43.118;25.694;2023-05-02T02:07:00;4.85;;;3.47;;
33844;SDS011;20145;43.118;25.694;2023-05-02T02:09:30;4.28;;;3.63;;
33844;SDS011;20145;43.118;25.694;2023-05-02T02:12:04;4.95;;;3.85;;
33844;SDS011;20145;43.118;25.694;2023-05-02T02:14:33;4.05;;;3.53;;
33844;SDS011;20145;43.118;25.694;2023-05-02T02:17:21;4.03;;;3.65;;
33844;SDS011;20145;43.118;25.694;2023-05-02T02:19:52;7.55;;;3.42;;
33844;SDS011;20145;43.118;25.694;2023-05-02T02:22:20;4.10;;;3.70;;
33844;SDS011;20145;43.118;25.694;2023-05-02T02:24:48;4.88;;;3.53;;
33844;SDS011;20145;43.118;25.694;2023-05-02T02:27:16;4.43;;;3.65;;
33844;SDS011;20145;43.118;25.694;2023-05-02T02:29:42;4.57;;;4.10;;
33844;SDS011;20145;43.118;25.694;2023-05-02T02:32:08;3.90;;;3.20;;
33844;SDS011;20145;43.118;25.694;2023-05-02T02:34:34;5.57;;;3.65;;
33844;SDS011;20145;43.118;25.694;2023-05-02T02:37:01;11.38;;;4.60;;
33844;SDS011;20145;43.118;25.694;2023-05-02T02:56:40;6.40;;;3.25;;
33844;SDS011;20145;43.118;25.694;2023-05-02T02:59:26;3.75;;;3.28;;
33844;SDS011;20145;43.118;25.694;2023-05-02T03:02:05;3.65;;;3.08;;
33844;SDS011;20145;43.118;25.694;2023-05-02T03:04:36;4.50;;;3.40;;
33844;SDS011;20145;43.118;25.694;2023-05-02T03:07:05;3.72;;;3.22;;
33844;SDS011;20145;43.118;25.694;2023-05-02T03:09:43;5.45;;;3.08;;
33844;SDS011;20145;43.118;25.694;2023-05-02T03:12:11;9.02;;;3.45;;
33844;SDS011;20145;43.118;25.694;2023-05-02T03:14:37;8.45;;;3.60;;
33844;SDS011;20145;43.118;25.694;2023-05-02T03:17:03;6.35;;;3.28;;
33844;SDS011;20145;43.118;25.694;2023-05-02T03:19:29;4.28;;;3.15;;
33844;SDS011;20145;43.118;25.694;2023-05-02T03:21:55;4.95;;;2.88;;
33844;SDS011;20145;43.118;25.694;2023-05-02T03:24:21;4.82;;;3.08;;
33844;SDS011;20145;43.118;25.694;2023-05-02T03:26:47;3.25;;;2.95;;
33844;SDS011;20145;43.118;25.694;2023-05-02T03:29:13;4.00;;;3.30;;
33844;SDS011;20145;43.118;25.694;2023-05-02T03:31:39;4.22;;;3.03;;
33844;SDS011;20145;43.118;25.694;2023-05-02T03:34:05;4.97;;;3.20;;
33844;SDS011;20145;43.118;25.694;2023-05-02T03:36:30;6.25;;;3.50;;
33844;SDS011;20145;43.118;25.694;2023-05-02T03:38:56;5.82;;;4.00;;
33844;SDS011;20145;43.118;25.694;2023-05-02T03:41:22;4.82;;;3.30;;
33844;SDS011;20145;43.118;25.694;2023-05-02T03:43:49;5.68;;;3.90;;
33844;SDS011;20145;43.118;25.694;2023-05-02T03:46:15;6.55;;;3.38;;
33844;SDS011;20145;43.118;25.694;2023-05-02T03:48:40;5.45;;;3.30;;
33844;SDS011;20145;43.118;25.694;2023-05-02T03:51:06;5.43;;;3.30;;
33844;SDS011;20145;43.118;25.694;2023-05-02T03:53:33;4.25;;;2.92;;
33844;SDS011;20145;43.118;25.694;2023-05-02T03:55:59;6.85;;;3.15;;
33844;SDS011;20145;43.118;25.694;2023-05-02T03:58:25;3.45;;;3.13;;
33844;SDS011;20145;43.118;25.694;2023-05-02T04:00:51;6.38;;;3.97;;
33844;SDS011;20145;43.118;25.694;2023-05-02T04:03:17;3.80;;;2.90;;
33844;SDS011;20145;43.118;25.694;2023-05-02T04:05:43;5.60;;;3.78;;
33844;SDS011;20145;43.118;25.694;2023-05-02T04:08:09;6.63;;;4.53;;
33844;SDS011;20145;43.118;25.694;2023-05-02T04:10:35;8.55;;;3.85;;
33844;SDS011;20145;43.118;25.694;2023-05-02T04:13:00;5.72;;;3.22;;
33844;SDS011;20145;43.118;25.694;2023-05-02T04:15:27;8.98;;;3.88;;
33844;SDS011;20145;43.118;25.694;2023-05-02T04:17:53;5.10;;;3.47;;
33844;SDS011;20145;43.118;25.694;2023-05-02T04:20:19;8.02;;;3.30;;
33844;SDS011;20145;43.118;25.694;2023-05-02T04:22:44;7.18;;;3.38;;
33844;SDS011;20145;43.118;25.694;2023-05-02T04:25:12;7.55;;;3.10;;
33844;SDS011;20145;43.118;25.694;2023-05-02T04:27:37;9.32;;;4.40;;
33844;SDS011;20145;43.118;25.694;2023-05-02T04:30:03;10.30;;;4.00;;
33844;SDS011;20145;43.118;25.694;2023-05-02T04:32:30;11.48;;;4.20;;
33844;SDS011;20145;43.118;25.694;2023-05-02T04:34:55;14.88;;;7.85;;
33844;SDS011;20145;43.118;25.694;2023-05-02T04:37:21;12.15;;;4.90;;
33844;SDS011;20145;43.118;25.694;2023-05-02T04:39:47;10.23;;;6.93;;
33844;SDS011;20145;43.118;25.694;2023-05-02T04:42:12;8.32;;;4.68;;
33844;SDS011;20145;43.118;25.694;2023-05-02T04:44:38;9.55;;;4.55;;
33844;SDS011;20145;43.118;25.694;2023-05-02T04:47:03;12.65;;;4.70;;
33844;SDS011;20145;43.118;25.694;2023-05-02T04:49:29;11.43;;;4.55;;
33844;SDS011;20145;43.118;25.694;2023-05-02T04:51:56;8.20;;;4.53;;
33844;SDS011;20145;43.118;25.694;2023-05-02T04:54:22;16.77;;;4.88;;
33844;SDS011;20145;43.118;25.694;2023-05-02T04:56:47;8.63;;;4.25;;
33844;SDS011;20145;43.118;25.694;2023-05-02T04:59:13;5.07;;;3.88;;
33844;SDS011;20145;43.118;25.694;2023-05-02T05:01:39;5.60;;;3.67;;
33844;SDS011;20145;43.118;25.694;2023-05-02T05:04:04;8.43;;;3.25;;
33844;SDS011;20145;43.118;25.694;2023-05-02T05:06:30;10.80;;;4.13;;
33844;SDS011;20145;43.118;25.694;2023-05-02T05:08:56;13.73;;;3.67;;
33844;SDS011;20145;43.118;25.694;2023-05-02T05:11:21;13.02;;;3.60;;
33844;SDS011;20145;43.118;25.694;2023-05-02T05:13:47;6.78;;;2.97;;
33844;SDS011;20145;43.118;25.694;2023-05-02T05:16:13;6.25;;;3.22;;
33844;SDS011;20145;43.118;25.694;2023-05-02T05:18:38;9.77;;;3.47;;
33844;SDS011;20145;43.118;25.694;2023-05-02T05:21:05;12.15;;;3.35;;
33844;SDS011;20145;43.118;25.694;2023-05-02T05:23:31;12.25;;;3.53;;
33844;SDS011;20145;43.118;25.694;2023-05-02T05:25:57;5.38;;;3.40;;
33844;SDS011;20145;43.118;25.694;2023-05-02T05:28:23;9.02;;;3.42;;
33844;SDS011;20145;43.118;25.694;2023-05-02T05:30:48;7.93;;;3.38;;
33844;SDS011;20145;43.118;25.694;2023-05-02T05:33:16;5.93;;;2.90;;
33844;SDS011;20145;43.118;25.694;2023-05-02T05:35:41;5.45;;;2.78;;
33844;SDS011;20145;43.118;25.694;2023-05-02T05:38:07;10.35;;;4.28;;
33844;SDS011;20145;43.118;25.694;2023-05-02T05:40:32;5.50;;;2.78;;
33844;SDS011;20145;43.118;25.694;2023-05-02T05:42:58;11.90;;;3.30;;
33844;SDS011;20145;43.118;25.694;2023-05-02T05:45:23;5.65;;;2.85;;
33844;SDS011;20145;43.118;25.694;2023-05-02T05:47:49;6.43;;;2.78;;
33844;SDS011;20145;43.118;25.694;2023-05-02T05:50:15;8.43;;;2.88;;
33844;SDS011;20145;43.118;25.694;2023-05-02T05:52:40;4.88;;;2.50;;
33844;SDS011;20145;43.118;25.694;2023-05-02T05:55:06;6.10;;;2.95;;
33844;SDS011;20145;43.118;25.694;2023-05-02T05:57:32;4.45;;;2.53;;
33844;SDS011;20145;43.118;25.694;2023-05-02T05:59:57;4.13;;;2.13;;
33844;SDS011;20145;43.118;25.694;2023-05-02T06:02:23;4.55;;;2.25;;
33844;SDS011;20145;43.118;25.694;2023-05-02T06:04:49;7.72;;;2.15;;
33844;SDS011;20145;43.118;25.694;2023-05-02T06:09:58;5.78;;;2.80;;
33844;SDS011;20145;43.118;25.694;2023-05-02T06:12:24;3.28;;;2.38;;
33844;SDS011;20145;43.118;25.694;2023-05-02T06:14:50;7.95;;;3.13;;
33844;SDS011;20145;43.118;25.694;2023-05-02T06:17:15;2.72;;;1.90;;
33844;SDS011;20145;43.118;25.694;2023-05-02T06:19:41;2.88;;;1.80;;
33844;SDS011;20145;43.118;25.694;2023-05-02T06:22:06;5.50;;;2.20;;
33844;SDS011;20145;43.118;25.694;2023-05-02T06:24:32;12.00;;;2.60;;
33844;SDS011;20145;43.118;25.694;2023-05-02T06:26:58;7.97;;;2.55;;
33844;SDS011;20145;43.118;25.694;2023-05-02T06:29:24;7.03;;;2.70;;
33844;SDS011;20145;43.118;25.694;2023-05-02T06:31:49;5.78;;;2.95;;
33844;SDS011;20145;43.118;25.694;2023-05-02T06:34:19;7.53;;;2.42;;
33844;SDS011;20145;43.118;25.694;2023-05-02T06:36:45;4.63;;;2.70;;
33844;SDS011;20145;43.118;25.694;2023-05-02T06:39:10;5.70;;;2.40;;
33844;SDS011;20145;43.118;25.694;2023-05-02T06:41:36;4.07;;;2.33;;
33844;SDS011;20145;43.118;25.694;2023-05-02T06:44:02;5.47;;;2.05;;
33844;SDS011;20145;43.118;25.694;2023-05-02T06:46:28;2.97;;;1.83;;
33844;SDS011;20145;43.118;25.694;2023-05-02T06:48:54;3.88;;;2.42;;
33844;SDS011;20145;43.118;25.694;2023-05-02T06:51:20;5.50;;;2.20;;
33844;SDS011;20145;43.118;25.694;2023-05-02T06:53:46;4.80;;;1.85;;
33844;SDS011;20145;43.118;25.694;2023-05-02T06:56:12;9.63;;;2.40;;
33844;SDS011;20145;43.118;25.694;2023-05-02T06:58:37;3.00;;;1.85;;
33844;SDS011;20145;43.118;25.694;2023-05-02T07:01:03;5.47;;;2.00;;
33844;SDS011;20145;43.118;25.694;2023-05-02T07:03:28;2.70;;;1.45;;
33844;SDS011;20145;43.118;25.694;2023-05-02T07:05:54;2.58;;;1.50;;
33844;SDS011;20145;43.118;25.694;2023-05-02T07:08:20;2.03;;;1.58;;
33844;SDS011;20145;43.118;25.694;2023-05-02T07:10:48;5.93;;;1.95;;
33844;SDS011;20145;43.118;25.694;2023-05-02T07:13:14;5.60;;;1.83;;
33844;SDS011;20145;43.118;25.694;2023-05-02T07:15:39;3.67;;;1.60;;
33844;SDS011;20145;43.118;25.694;2023-05-02T07:18:07;4.88;;;1.88;;
33844;SDS011;20145;43.118;25.694;2023-05-02T07:20:32;4.13;;;1.73;;
33844;SDS011;20145;43.118;25.694;2023-05-02T07:22:58;4.97;;;1.60;;
33844;SDS011;20145;43.118;25.694;2023-05-02T07:25:23;7.80;;;1.60;;
33844;SDS011;20145;43.118;25.694;2023-05-02T07:27:49;5.00;;;1.80;;
33844;SDS011;20145;43.118;25.694;2023-05-02T07:30:15;6.80;;;1.90;;
33844;SDS011;20145;43.118;25.694;2023-05-02T07:32:40;6.20;;;2.20;;
33844;SDS011;20145;43.118;25.694;2023-05-02T07:35:06;4.45;;;1.60;;
33844;SDS011;20145;43.118;25.694;2023-05-02T07:37:32;1.95;;;1.48;;
33844;SDS011;20145;43.118;25.694;2023-05-02T07:40:01;5.22;;;2.00;;
33844;SDS011;20145;43.118;25.694;2023-05-02T07:42:31;4.57;;;2.30;;
33844;SDS011;20145;43.118;25.694;2023-05-02T07:44:57;3.05;;;1.65;;
33844;SDS011;20145;43.118;25.694;2023-05-02T07:47:24;4.25;;;1.48;;
33844;SDS011;20145;43.118;25.694;2023-05-02T07:49:53;3.17;;;1.60;;
33844;SDS011;20145;43.118;25.694;2023-05-02T07:52:20;6.20;;;2.30;;
33844;SDS011;20145;43.118;25.694;2023-05-02T07:54:49;3.70;;;1.70;;
33844;SDS011;20145;43.118;25.694;2023-05-02T07:57:14;4.65;;;1.70;;
33844;SDS011;20145;43.118;25.694;2023-05-02T07:59:40;3.78;;;1.73;;
33844;SDS011;20145;43.118;25.694;2023-05-02T08:02:06;4.47;;;2.10;;
33844;SDS011;20145;43.118;25.694;2023-05-02T08:04:32;1.77;;;1.60;;
33844;SDS011;20145;43.118;25.694;2023-05-02T08:06:58;2.47;;;1.48;;
33844;SDS011;20145;43.118;25.694;2023-05-02T08:09:24;2.78;;;1.60;;
33844;SDS011;20145;43.118;25.694;2023-05-02T08:11:50;6.82;;;1.60;;
33844;SDS011;20145;43.118;25.694;2023-05-02T08:14:16;3.25;;;1.63;;
33844;SDS011;20145;43.118;25.694;2023-05-02T08:16:42;7.00;;;1.73;;
33844;SDS011;20145;43.118;25.694;2023-05-02T08:19:08;4.55;;;2.00;;
33844;SDS011;20145;43.118;25.694;2023-05-02T08:21:33;2.35;;;1.55;;
33844;SDS011;20145;43.118;25.694;2023-05-02T08:23:59;3.80;;;1.50;;
33844;SDS011;20145;43.118;25.694;2023-05-02T08:26:25;4.63;;;1.50;;
33844;SDS011;20145;43.118;25.694;2023-05-02T08:28:52;3.92;;;1.75;;
33844;SDS011;20145;43.118;25.694;2023-05-02T08:31:19;4.93;;;1.88;;
33844;SDS011;20145;43.118;25.694;2023-05-02T08:33:45;4.43;;;2.10;;
33844;SDS011;20145;43.118;25.694;2023-05-02T08:36:12;2.50;;;1.52;;
33844;SDS011;20145;43.118;25.694;2023-05-02T08:38:39;6.05;;;1.65;;
33844;SDS011;20145;43.118;25.694;2023-05-02T08:43:38;4.75;;;1.98;;
33844;SDS011;20145;43.118;25.694;2023-05-02T08:46:05;3.25;;;1.85;;
33844;SDS011;20145;43.118;25.694;2023-05-02T08:48:38;3.97;;;1.83;;
33844;SDS011;20145;43.118;25.694;2023-05-02T08:51:08;3.30;;;1.98;;
33844;SDS011;20145;43.118;25.694;2023-05-02T08:53:41;4.38;;;1.63;;
33844;SDS011;20145;43.118;25.694;2023-05-02T08:56:08;2.83;;;1.33;;
33844;SDS011;20145;43.118;25.694;2023-05-02T08:58:35;3.08;;;1.90;;
33844;SDS011;20145;43.118;25.694;2023-05-02T09:01:03;3.15;;;1.85;;
33844;SDS011;20145;43.118;25.694;2023-05-02T09:03:42;3.05;;;1.60;;
33844;SDS011;20145;43.118;25.694;2023-05-02T09:06:09;4.70;;;1.80;;
33844;SDS011;20145;43.118;25.694;2023-05-02T09:11:06;4.38;;;1.90;;
33844;SDS011;20145;43.118;25.694;2023-05-02T09:13:40;3.50;;;1.42;;
33844;SDS011;20145;43.118;25.694;2023-05-02T09:16:20;3.08;;;1.42;;
33844;SDS011;20145;43.118;25.694;2023-05-02T09:18:47;2.90;;;1.83;;
33844;SDS011;20145;43.118;25.694;2023-05-02T09:21:20;3.20;;;1.98;;
33844;SDS011;20145;43.118;25.694;2023-05-02T09:23:48;4.30;;;1.52;;
33844;SDS011;20145;43.118;25.694;2023-05-02T09:28:50;3.22;;;1.65;;
33844;SDS011;20145;43.118;25.694;2023-05-02T09:31:18;4.50;;;2.08;;
33844;SDS011;20145;43.118;25.694;2023-05-02T09:33:46;4.10;;;1.80;;
33844;SDS011;20145;43.118;25.694;2023-05-02T09:36:12;6.53;;;1.67;;
33844;SDS011;20145;43.118;25.694;2023-05-02T09:38:40;4.25;;;1.67;;
33844;SDS011;20145;43.118;25.694;2023-05-02T09:41:06;2.88;;;1.83;;
33844;SDS011;20145;43.118;25.694;2023-05-02T09:43:32;4.15;;;1.70;;
33844;SDS011;20145;43.118;25.694;2023-05-02T09:46:01;2.45;;;1.30;;
33844;SDS011;20145;43.118;25.694;2023-05-02T09:48:27;1.60;;;1.40;;
33844;SDS011;20145;43.118;25.694;2023-05-02T09:50:54;4.28;;;2.03;;
33844;SDS011;20145;43.118;25.694;2023-05-02T09:53:20;1.50;;;1.40;;
33844;SDS011;20145;43.118;25.694;2023-05-02T09:55:45;2.55;;;1.30;;
33844;SDS011;20145;43.118;25.694;2023-05-02T09:58:21;2.58;;;1.60;;
33844;SDS011;20145;43.118;25.694;2023-05-02T10:00:48;2.70;;;1.30;;
33844;SDS011;20145;43.118;25.694;2023-05-02T10:03:15;3.70;;;1.83;;
33844;SDS011;20145;43.118;25.694;2023-05-02T10:05:42;3.05;;;1.77;;
33844;SDS011;20145;43.118;25.694;2023-05-02T10:08:09;1.55;;;1.20;;
33844;SDS011;20145;43.118;25.694;2023-05-02T10:10:37;5.03;;;1.50;;
33844;SDS011;20145;43.118;25.694;2023-05-02T10:13:08;5.03;;;1.63;;
33844;SDS011;20145;43.118;25.694;2023-05-02T10:15:40;4.90;;;1.70;;
33844;SDS011;20145;43.118;25.694;2023-05-02T10:18:08;1.70;;;1.33;;
33844;SDS011;20145;43.118;25.694;2023-05-02T10:20:41;2.15;;;1.45;;
33844;SDS011;20145;43.118;25.694;2023-05-02T10:23:13;6.85;;;1.40;;
33844;SDS011;20145;43.118;25.694;2023-05-02T10:25:40;3.53;;;1.15;;
33844;SDS011;20145;43.118;25.694;2023-05-02T10:28:06;2.53;;;1.45;;
33844;SDS011;20145;43.118;25.694;2023-05-02T10:30:33;2.13;;;1.40;;
33844;SDS011;20145;43.118;25.694;2023-05-02T10:32:59;2.22;;;1.35;;
33844;SDS011;20145;43.118;25.694;2023-05-02T10:35:27;6.13;;;1.90;;
33844;SDS011;20145;43.118;25.694;2023-05-02T10:37:54;2.35;;;1.48;;
33844;SDS011;20145;43.118;25.694;2023-05-02T10:40:21;3.10;;;1.40;;
33844;SDS011;20145;43.118;25.694;2023-05-02T10:42:47;6.22;;;1.48;;
33844;SDS011;20145;43.118;25.694;2023-05-02T10:45:34;4.30;;;1.20;;
33844;SDS011;20145;43.118;25.694;2023-05-02T10:48:34;3.88;;;1.50;;
33844;SDS011;20145;43.118;25.694;2023-05-02T10:53:32;4.60;;;1.02;;
33844;SDS011;20145;43.118;25.694;2023-05-02T10:56:11;2.80;;;1.35;;
33844;SDS011;20145;43.118;25.694;2023-05-02T10:58:41;3.92;;;1.40;;
33844;SDS011;20145;43.118;25.694;2023-05-02T11:04:04;2.42;;;1.40;;
33844;SDS011;20145;43.118;25.694;2023-05-02T11:06:31;2.10;;;1.07;;
33844;SDS011;20145;43.118;25.694;2023-05-02T11:11:46;3.58;;;1.10;;
33844;SDS011;20145;43.118;25.694;2023-05-02T11:24:51;6.30;;;1.80;;
33844;SDS011;20145;43.118;25.694;2023-05-02T11:29:55;4.07;;;1.42;;
33844;SDS011;20145;43.118;25.694;2023-05-02T11:35:18;2.92;;;1.20;;
33844;SDS011;20145;43.118;25.694;2023-05-02T11:37:54;2.28;;;1.23;;
33844;SDS011;20145;43.118;25.694;2023-05-02T11:40:24;5.25;;;1.30;;
33844;SDS011;20145;43.118;25.694;2023-05-02T11:42:51;4.28;;;1.50;;
33844;SDS011;20145;43.118;25.694;2023-05-02T11:45:17;5.30;;;1.23;;
33844;SDS011;20145;43.118;25.694;2023-05-02T11:47:45;3.40;;;1.20;;
33844;SDS011;20145;43.118;25.694;2023-05-02T11:50:12;1.30;;;1.20;;
33844;SDS011;20145;43.118;25.694;2023-05-02T11:52:40;3.95;;;1.35;;
33844;SDS011;20145;43.118;25.694;2023-05-02T11:55:09;1.77;;;1.35;;
33844;SDS011;20145;43.118;25.694;2023-05-02T11:57:37;3.25;;;1.27;;
33844;SDS011;20145;43.118;25.694;2023-05-02T12:00:03;1.88;;;1.02;;
33844;SDS011;20145;43.118;25.694;2023-05-02T12:02:39;5.43;;;1.30;;
33844;SDS011;20145;43.118;25.694;2023-05-02T12:05:06;4.88;;;1.35;;
33844;SDS011;20145;43.118;25.694;2023-05-02T12:07:34;3.60;;;1.60;;
33844;SDS011;20145;43.118;25.694;2023-05-02T12:10:04;2.17;;;1.20;;
33844;SDS011;20145;43.118;25.694;2023-05-02T12:12:31;5.50;;;2.10;;
33844;SDS011;20145;43.118;25.694;2023-05-02T12:14:56;1.67;;;1.40;;
33844;SDS011;20145;43.118;25.694;2023-05-02T12:17:22;5.18;;;1.20;;
33844;SDS011;20145;43.118;25.694;2023-05-02T12:19:48;2.95;;;1.27;;
33844;SDS011;20145;43.118;25.694;2023-05-02T12:22:14;3.67;;;1.38;;
33844;SDS011;20145;43.118;25.694;2023-05-02T12:24:41;1.58;;;1.10;;
33844;SDS011;20145;43.118;25.694;2023-05-02T12:27:14;4.32;;;1.50;;
33844;SDS011;20145;43.118;25.694;2023-05-02T12:29:46;4.03;;;1.20;;
33844;SDS011;20145;43.118;25.694;2023-05-02T12:32:13;2.78;;;1.17;;
33844;SDS011;20145;43.118;25.694;2023-05-02T12:34:39;8.77;;;1.70;;
33844;SDS011;20145;43.118;25.694;2023-05-02T12:37:06;8.10;;;2.83;;
33844;SDS011;20145;43.118;25.694;2023-05-02T12:39:36;3.75;;;2.72;;
33844;SDS011;20145;43.118;25.694;2023-05-02T12:42:12;4.18;;;1.92;;
33844;SDS011;20145;43.118;25.694;2023-05-02T12:44:39;3.45;;;1.90;;
33844;SDS011;20145;43.118;25.694;2023-05-02T12:47:06;4.20;;;2.30;;
33844;SDS011;20145;43.118;25.694;2023-05-02T12:49:55;2.25;;;1.50;;
33844;SDS011;20145;43.118;25.694;2023-05-02T12:55:25;4.43;;;1.20;;
33844;SDS011;20145;43.118;25.694;2023-05-02T13:00:25;4.13;;;1.67;;
33844;SDS011;20145;43.118;25.694;2023-05-02T13:02:51;2.05;;;1.48;;
33844;SDS011;20145;43.118;25.694;2023-05-02T13:05:18;12.65;;;2.13;;
33844;SDS011;20145;43.118;25.694;2023-05-02T13:07:44;3.55;;;1.20;;
33844;SDS011;20145;43.118;25.694;2023-05-02T13:10:11;3.50;;;1.55;;
33844;SDS011;20145;43.118;25.694;2023-05-02T13:12:37;2.97;;;1.40;;
33844;SDS011;20145;43.118;25.694;2023-05-02T13:15:03;1.23;;;1.13;;
33844;SDS011;20145;43.118;25.694;2023-05-02T13:17:30;7.32;;;1.50;;
33844;SDS011;20145;43.118;25.694;2023-05-02T13:19:56;2.83;;;1.30;;
33844;SDS011;20145;43.118;25.694;2023-05-02T13:22:25;3.85;;;1.33;;
33844;SDS011;20145;43.118;25.694;2023-05-02T13:24:51;2.92;;;1.13;;
33844;SDS011;20145;43.118;25.694;2023-05-02T13:27:17;2.33;;;1.27;;
33844;SDS011;20145;43.118;25.694;2023-05-02T13:29:45;1.70;;;1.00;;
33844;SDS011;20145;43.118;25.694;2023-05-02T13:32:12;1.75;;;1.10;;
33844;SDS011;20145;43.118;25.694;2023-05-02T13:34:38;5.38;;;1.20;;
33844;SDS011;20145;43.118;25.694;2023-05-02T13:37:04;2.60;;;1.50;;
33844;SDS011;20145;43.118;25.694;2023-05-02T13:39:29;3.47;;;1.17;;
33844;SDS011;20145;43.118;25.694;2023-05-02T13:41:55;4.85;;;1.20;;
33844;SDS011;20145;43.118;25.694;2023-05-02T13:44:20;9.05;;;1.60;;
33844;SDS011;20145;43.118;25.694;2023-05-02T13:46:46;4.50;;;1.40;;
33844;SDS011;20145;43.118;25.694;2023-05-02T13:49:12;3.10;;;1.13;;
33844;SDS011;20145;43.118;25.694;2023-05-02T13:51:38;2.25;;;1.10;;
33844;SDS011;20145;43.118;25.694;2023-05-02T13:54:04;4.13;;;1.10;;
33844;SDS011;20145;43.118;25.694;2023-05-02T13:56:29;4.20;;;1.52;;
33844;SDS011;20145;43.118;25.694;2023-05-02T13:58:55;8.30;;;1.40;;
33844;SDS011;20145;43.118;25.694;2023-05-02T14:01:21;5.18;;;1.50;;
33844;SDS011;20145;43.118;25.694;2023-05-02T14:03:47;4.40;;;1.10;;
33844;SDS011;20145;43.118;25.694;2023-05-02T14:06:12;5.82;;;1.48;;
33844;SDS011;20145;43.118;25.694;2023-05-02T14:08:38;2.42;;;1.50;;
33844;SDS011;20145;43.118;25.694;2023-05-02T14:11:04;9.45;;;2.00;;
33844;SDS011;20145;43.118;25.694;2023-05-02T14:13:29;5.43;;;1.38;;
33844;SDS011;20145;43.118;25.694;2023-05-02T14:15:55;7.05;;;1.20;;
33844;SDS011;20145;43.118;25.694;2023-05-02T14:18:21;5.68;;;1.35;;
33844;SDS011;20145;43.118;25.694;2023-05-02T14:20:47;5.57;;;1.38;;
33844;SDS011;20145;43.118;25.694;2023-05-02T14:23:12;6.30;;;1.40;;
33844;SDS011;20145;43.118;25.694;2023-05-02T14:25:38;1.70;;;1.08;;
33844;SDS011;20145;43.118;25.694;2023-05-02T14:28:03;2.80;;;1.10;;
33844;SDS011;20145;43.118;25.694;2023-05-02T14:30:30;2.00;;;1.10;;
33844;SDS011;20145;43.118;25.694;2023-05-02T14:32:55;2.13;;;1.20;;
33844;SDS011;20145;43.118;25.694;2023-05-02T14:35:21;3.30;;;1.23;;
33844;SDS011;20145;43.118;25.694;2023-05-02T14:37:47;2.38;;;1.02;;
33844;SDS011;20145;43.118;25.694;2023-05-02T14:40:12;3.58;;;1.33;;
33844;SDS011;20145;43.118;25.694;2023-05-02T14:42:38;2.92;;;1.30;;
33844;SDS011;20145;43.118;25.694;2023-05-02T14:45:05;5.05;;;1.23;;
33844;SDS011;20145;43.118;25.694;2023-05-02T14:47:31;1.20;;;1.10;;
33844;SDS011;20145;43.118;25.694;2023-05-02T14:49:57;3.08;;;0.95;;
33844;SDS011;20145;43.118;25.694;2023-05-02T14:52:22;5.22;;;1.00;;
33844;SDS011;20145;43.118;25.694;2023-05-02T14:54:48;3.17;;;1.23;;
33844;SDS011;20145;43.118;25.694;2023-05-02T14:57:14;4.80;;;1.35;;
33844;SDS011;20145;43.118;25.694;2023-05-02T14:59:40;1.20;;;1.10;;
33844;SDS011;20145;43.118;25.694;2023-05-02T15:02:06;4.95;;;1.30;;
33844;SDS011;20145;43.118;25.694;2023-05-02T15:04:31;2.13;;;1.38;;
33844;SDS011;20145;43.118;25.694;2023-05-02T15:07:00;4.88;;;1.70;;
33844;SDS011;20145;43.118;25.694;2023-05-02T15:09:26;5.30;;;1.30;;
33844;SDS011;20145;43.118;25.694;2023-05-02T15:11:52;5.43;;;1.10;;
33844;SDS011;20145;43.118;25.694;2023-05-02T15:14:17;3.95;;;1.17;;
33844;SDS011;20145;43.118;25.694;2023-05-02T15:16:43;1.40;;;1.30;;
33844;SDS011;20145;43.118;25.694;2023-05-02T15:19:09;6.22;;;1.42;;
33844;SDS011;20145;43.118;25.694;2023-05-02T15:21:35;2.05;;;1.10;;
33844;SDS011;20145;43.118;25.694;2023-05-02T15:24:01;2.58;;;1.20;;
33844;SDS011;20145;43.118;25.694;2023-05-02T15:26:28;1.40;;;1.23;;
33844;SDS011;20145;43.118;25.694;2023-05-02T15:28:54;6.60;;;1.20;;
33844;SDS011;20145;43.118;25.694;2023-05-02T15:31:20;2.10;;;1.38;;
33844;SDS011;20145;43.118;25.694;2023-05-02T15:33:46;3.00;;;1.45;;
33844;SDS011;20145;43.118;25.694;2023-05-02T15:36:11;1.98;;;1.20;;
33844;SDS011;20145;43.118;25.694;2023-05-02T15:38:38;2.88;;;1.13;;
33844;SDS011;20145;43.118;25.694;2023-05-02T15:41:07;4.18;;;1.45;;
33844;SDS011;20145;43.118;25.694;2023-05-02T15:43:33;6.43;;;1.40;;